sensor_id;sensor_type;location;lat;lon;timestamp;P1;durP1;ratioP1;P2;durP2;ratioP2
3843;SDS011;1937;51.444;6.484;2023-02-15T00:00:14;31.50;;;17.50;;
3843;SDS011;1937;51.444;6.484;2023-02-15T00:02:42;36.80;;;16.60;;
3843;SDS011;1937;51.444;6.484;2023-02-15T00:05:10;35.97;;;18.17;;
3843;SDS011;1937;51.444;6.484;2023-02-15T00:07:39;26.10;;;16.40;;
3843;SDS011;1937;51.444;6.484;2023-02-15T00:10:07;31.80;;;16.57;;
3843;SDS011;1937;51.444;6.484;2023-02-15T00:12:37;34.30;;;16.33;;
3843;SDS011;1937;51.444;6.484;2023-02-15T00:15:05;39.30;;;18.27;;
3843;SDS011;1937;51.444;6.484;2023-02-15T00:17:37;32.30;;;16.83;;
3843;SDS011;1937;51.444;6.484;2023-02-15T00:20:06;39.13;;;17.27;;
3843;SDS011;1937;51.444;6.484;2023-02-15T00:22:36;35.23;;;19.40;;
3843;SDS011;1937;51.444;6.484;2023-02-15T00:25:05;35.17;;;18.10;;
3843;SDS011;1937;51.444;6.484;2023-02-15T00:27:33;37.20;;;17.80;;
3843;SDS011;1937;51.444;6.484;2023-02-15T00:30:01;36.53;;;18.80;;
3843;SDS011;1937;51.444;6.484;2023-02-15T00:32:31;33.17;;;18.47;;
3843;SDS011;1937;51.444;6.484;2023-02-15T00:35:02;40.00;;;18.20;;
3843;SDS011;1937;51.444;6.484;2023-02-15T00:37:31;36.80;;;18.63;;
3843;SDS011;1937;51.444;6.484;2023-02-15T00:40:00;37.07;;;19.60;;
3843;SDS011;1937;51.444;6.484;2023-02-15T00:42:28;39.20;;;19.10;;
3843;SDS011;1937;51.444;6.484;2023-02-15T00:44:57;41.00;;;18.93;;
3843;SDS011;1937;51.444;6.484;2023-02-15T00:47:25;35.40;;;18.80;;
3843;SDS011;1937;51.444;6.484;2023-02-15T00:49:54;39.30;;;18.90;;
3843;SDS011;1937;51.444;6.484;2023-02-15T00:52:23;41.03;;;18.97;;
3843;SDS011;1937;51.444;6.484;2023-02-15T00:54:52;40.90;;;18.57;;
3843;SDS011;1937;51.444;6.484;2023-02-15T00:57:21;38.93;;;19.10;;
3843;SDS011;1937;51.444;6.484;2023-02-15T00:59:49;34.60;;;17.03;;
3843;SDS011;1937;51.444;6.484;2023-02-15T01:02:18;36.37;;;18.50;;
3843;SDS011;1937;51.444;6.484;2023-02-15T01:04:46;33.30;;;17.97;;
3843;SDS011;1937;51.444;6.484;2023-02-15T01:07:14;39.70;;;18.10;;
3843;SDS011;1937;51.444;6.484;2023-02-15T01:09:44;33.83;;;18.50;;
3843;SDS011;1937;51.444;6.484;2023-02-15T01:12:12;37.10;;;19.10;;
3843;SDS011;1937;51.444;6.484;2023-02-15T01:14:40;37.10;;;19.13;;
3843;SDS011;1937;51.444;6.484;2023-02-15T01:17:09;33.17;;;17.50;;
3843;SDS011;1937;51.444;6.484;2023-02-15T01:19:37;41.63;;;18.30;;
3843;SDS011;1937;51.444;6.484;2023-02-15T01:22:05;41.60;;;19.87;;
3843;SDS011;1937;51.444;6.484;2023-02-15T01:24:34;38.30;;;18.60;;
3843;SDS011;1937;51.444;6.484;2023-02-15T01:27:04;38.33;;;19.43;;
3843;SDS011;1937;51.444;6.484;2023-02-15T01:29:32;40.00;;;18.07;;
3843;SDS011;1937;51.444;6.484;2023-02-15T01:32:00;39.57;;;18.70;;
3843;SDS011;1937;51.444;6.484;2023-02-15T01:34:29;47.03;;;20.27;;
3843;SDS011;1937;51.444;6.484;2023-02-15T01:36:57;34.57;;;18.63;;
3843;SDS011;1937;51.444;6.484;2023-02-15T01:39:25;45.67;;;18.47;;
3843;SDS011;1937;51.444;6.484;2023-02-15T01:41:54;39.47;;;18.37;;
3843;SDS011;1937;51.444;6.484;2023-02-15T01:47:28;40.97;;;18.47;;
3843;SDS011;1937;51.444;6.484;2023-02-15T01:50:03;44.20;;;19.73;;
3843;SDS011;1937;51.444;6.484;2023-02-15T01:52:39;34.80;;;18.63;;
3843;SDS011;1937;51.444;6.484;2023-02-15T01:55:13;38.60;;;19.33;;
3843;SDS011;1937;51.444;6.484;2023-02-15T01:57:42;38.97;;;17.47;;
3843;SDS011;1937;51.444;6.484;2023-02-15T02:00:14;41.43;;;20.60;;
3843;SDS011;1937;51.444;6.484;2023-02-15T02:02:43;37.60;;;19.17;;
3843;SDS011;1937;51.444;6.484;2023-02-15T02:05:15;43.90;;;19.70;;
3843;SDS011;1937;51.444;6.484;2023-02-15T02:07:44;40.67;;;18.33;;
3843;SDS011;1937;51.444;6.484;2023-02-15T02:10:17;34.63;;;17.57;;
3843;SDS011;1937;51.444;6.484;2023-02-15T02:12:48;43.67;;;20.90;;
3843;SDS011;1937;51.444;6.484;2023-02-15T02:15:23;45.03;;;20.20;;
3843;SDS011;1937;51.444;6.484;2023-02-15T02:18:03;46.40;;;19.13;;
3843;SDS011;1937;51.444;6.484;2023-02-15T02:20:44;41.13;;;18.70;;
3843;SDS011;1937;51.444;6.484;2023-02-15T02:23:36;42.27;;;18.27;;
3843;SDS011;1937;51.444;6.484;2023-02-15T02:29:45;46.23;;;20.47;;
3843;SDS011;1937;51.444;6.484;2023-02-15T02:32:47;39.20;;;19.17;;
3843;SDS011;1937;51.444;6.484;2023-02-15T02:35:21;38.27;;;18.30;;
3843;SDS011;1937;51.444;6.484;2023-02-15T02:37:56;45.10;;;22.00;;
3843;SDS011;1937;51.444;6.484;2023-02-15T02:43:20;44.03;;;21.50;;
3843;SDS011;1937;51.444;6.484;2023-02-15T02:45:57;39.57;;;18.70;;
3843;SDS011;1937;51.444;6.484;2023-02-15T02:48:30;42.83;;;19.43;;
3843;SDS011;1937;51.444;6.484;2023-02-15T02:51:01;44.27;;;22.50;;
3843;SDS011;1937;51.444;6.484;2023-02-15T02:53:29;35.80;;;17.80;;
3843;SDS011;1937;51.444;6.484;2023-02-15T02:56:01;46.83;;;21.03;;
3843;SDS011;1937;51.444;6.484;2023-02-15T02:58:34;42.33;;;19.00;;
3843;SDS011;1937;51.444;6.484;2023-02-15T03:01:09;41.47;;;19.77;;
3843;SDS011;1937;51.444;6.484;2023-02-15T03:03:43;41.80;;;20.10;;
3843;SDS011;1937;51.444;6.484;2023-02-15T03:06:15;38.10;;;19.63;;
3843;SDS011;1937;51.444;6.484;2023-02-15T03:08:50;46.67;;;20.10;;
3843;SDS011;1937;51.444;6.484;2023-02-15T03:11:23;43.37;;;21.00;;
3843;SDS011;1937;51.444;6.484;2023-02-15T03:13:52;46.10;;;22.70;;
3843;SDS011;1937;51.444;6.484;2023-02-15T03:16:20;39.73;;;20.17;;
3843;SDS011;1937;51.444;6.484;2023-02-15T03:18:55;46.60;;;21.17;;
3843;SDS011;1937;51.444;6.484;2023-02-15T03:21:29;45.87;;;21.90;;
3843;SDS011;1937;51.444;6.484;2023-02-15T03:24:00;50.27;;;22.70;;
3843;SDS011;1937;51.444;6.484;2023-02-15T03:26:34;50.33;;;22.47;;
3843;SDS011;1937;51.444;6.484;2023-02-15T03:29:05;46.40;;;21.30;;
3843;SDS011;1937;51.444;6.484;2023-02-15T03:31:37;42.53;;;20.67;;
3843;SDS011;1937;51.444;6.484;2023-02-15T03:34:10;51.63;;;22.10;;
3843;SDS011;1937;51.444;6.484;2023-02-15T03:36:43;45.10;;;19.57;;
3843;SDS011;1937;51.444;6.484;2023-02-15T03:39:20;37.90;;;19.40;;
3843;SDS011;1937;51.444;6.484;2023-02-15T03:41:56;47.70;;;21.70;;
3843;SDS011;1937;51.444;6.484;2023-02-15T03:44:31;42.13;;;19.73;;
3843;SDS011;1937;51.444;6.484;2023-02-15T03:47:04;50.47;;;21.73;;
3843;SDS011;1937;51.444;6.484;2023-02-15T03:49:40;49.37;;;22.43;;
3843;SDS011;1937;51.444;6.484;2023-02-15T03:52:12;44.63;;;19.27;;
3843;SDS011;1937;51.444;6.484;2023-02-15T03:54:43;43.17;;;19.63;;
3843;SDS011;1937;51.444;6.484;2023-02-15T03:57:13;43.70;;;21.90;;
3843;SDS011;1937;51.444;6.484;2023-02-15T04:00:03;43.33;;;22.43;;
3843;SDS011;1937;51.444;6.484;2023-02-15T04:05:50;39.50;;;19.90;;
3843;SDS011;1937;51.444;6.484;2023-02-15T04:08:18;41.93;;;20.33;;
3843;SDS011;1937;51.444;6.484;2023-02-15T04:11:06;43.87;;;19.80;;
3843;SDS011;1937;51.444;6.484;2023-02-15T04:13:37;52.50;;;22.60;;
3843;SDS011;1937;51.444;6.484;2023-02-15T04:16:06;42.17;;;21.93;;
3843;SDS011;1937;51.444;6.484;2023-02-15T04:18:36;43.23;;;23.40;;
3843;SDS011;1937;51.444;6.484;2023-02-15T04:21:24;40.27;;;21.50;;
3843;SDS011;1937;51.444;6.484;2023-02-15T04:24:12;37.70;;;20.80;;
3843;SDS011;1937;51.444;6.484;2023-02-15T04:26:58;37.00;;;19.07;;
3843;SDS011;1937;51.444;6.484;2023-02-15T04:29:27;44.10;;;20.87;;
3843;SDS011;1937;51.444;6.484;2023-02-15T04:31:57;48.30;;;23.80;;
3843;SDS011;1937;51.444;6.484;2023-02-15T04:34:27;54.03;;;23.10;;
3843;SDS011;1937;51.444;6.484;2023-02-15T04:36:57;47.63;;;24.97;;
3843;SDS011;1937;51.444;6.484;2023-02-15T04:39:25;60.47;;;25.03;;
3843;SDS011;1937;51.444;6.484;2023-02-15T04:41:53;49.90;;;24.37;;
3843;SDS011;1937;51.444;6.484;2023-02-15T04:44:21;48.57;;;23.53;;
3843;SDS011;1937;51.444;6.484;2023-02-15T04:46:50;52.40;;;24.67;;
3843;SDS011;1937;51.444;6.484;2023-02-15T04:49:19;45.20;;;22.67;;
3843;SDS011;1937;51.444;6.484;2023-02-15T04:51:48;51.00;;;24.23;;
3843;SDS011;1937;51.444;6.484;2023-02-15T04:54:18;46.50;;;22.50;;
3843;SDS011;1937;51.444;6.484;2023-02-15T04:56:46;46.37;;;23.73;;
3843;SDS011;1937;51.444;6.484;2023-02-15T04:59:14;52.20;;;22.67;;
3843;SDS011;1937;51.444;6.484;2023-02-15T05:01:42;45.93;;;22.93;;
3843;SDS011;1937;51.444;6.484;2023-02-15T05:04:11;44.30;;;22.00;;
3843;SDS011;1937;51.444;6.484;2023-02-15T05:06:39;53.43;;;24.60;;
3843;SDS011;1937;51.444;6.484;2023-02-15T05:09:07;45.70;;;21.37;;
3843;SDS011;1937;51.444;6.484;2023-02-15T05:11:37;41.00;;;20.50;;
3843;SDS011;1937;51.444;6.484;2023-02-15T05:14:06;49.93;;;23.80;;
3843;SDS011;1937;51.444;6.484;2023-02-15T05:16:35;51.33;;;25.70;;
3843;SDS011;1937;51.444;6.484;2023-02-15T05:19:04;43.97;;;23.30;;
3843;SDS011;1937;51.444;6.484;2023-02-15T05:21:32;48.30;;;21.53;;
3843;SDS011;1937;51.444;6.484;2023-02-15T05:24:01;43.63;;;21.20;;
3843;SDS011;1937;51.444;6.484;2023-02-15T05:26:51;42.67;;;22.03;;
3843;SDS011;1937;51.444;6.484;2023-02-15T05:29:39;47.83;;;22.47;;
3843;SDS011;1937;51.444;6.484;2023-02-15T05:32:07;46.20;;;22.67;;
3843;SDS011;1937;51.444;6.484;2023-02-15T05:34:38;47.53;;;22.13;;
3843;SDS011;1937;51.444;6.484;2023-02-15T05:37:06;45.33;;;19.50;;
3843;SDS011;1937;51.444;6.484;2023-02-15T05:39:35;41.37;;;18.40;;
3843;SDS011;1937;51.444;6.484;2023-02-15T05:42:05;37.40;;;19.63;;
3843;SDS011;1937;51.444;6.484;2023-02-15T05:44:33;48.93;;;21.30;;
3843;SDS011;1937;51.444;6.484;2023-02-15T05:47:01;43.90;;;20.47;;
3843;SDS011;1937;51.444;6.484;2023-02-15T05:49:32;40.57;;;19.90;;
3843;SDS011;1937;51.444;6.484;2023-02-15T05:52:00;40.80;;;20.90;;
3843;SDS011;1937;51.444;6.484;2023-02-15T05:54:31;47.57;;;22.60;;
3843;SDS011;1937;51.444;6.484;2023-02-15T05:56:59;46.90;;;22.97;;
3843;SDS011;1937;51.444;6.484;2023-02-15T05:59:29;37.93;;;21.50;;
3843;SDS011;1937;51.444;6.484;2023-02-15T06:01:57;45.97;;;19.90;;
3843;SDS011;1937;51.444;6.484;2023-02-15T06:04:25;42.13;;;19.80;;
3843;SDS011;1937;51.444;6.484;2023-02-15T06:06:54;41.67;;;22.80;;
3843;SDS011;1937;51.444;6.484;2023-02-15T06:09:23;43.17;;;23.33;;
3843;SDS011;1937;51.444;6.484;2023-02-15T06:11:51;41.03;;;20.77;;
3843;SDS011;1937;51.444;6.484;2023-02-15T06:14:20;43.40;;;20.97;;
3843;SDS011;1937;51.444;6.484;2023-02-15T06:16:49;44.10;;;21.67;;
3843;SDS011;1937;51.444;6.484;2023-02-15T06:19:18;44.30;;;21.17;;
3843;SDS011;1937;51.444;6.484;2023-02-15T06:21:47;46.70;;;23.00;;
3843;SDS011;1937;51.444;6.484;2023-02-15T06:24:16;42.17;;;20.07;;
3843;SDS011;1937;51.444;6.484;2023-02-15T06:26:45;50.07;;;21.90;;
3843;SDS011;1937;51.444;6.484;2023-02-15T06:29:13;51.47;;;24.47;;
3843;SDS011;1937;51.444;6.484;2023-02-15T06:31:42;53.60;;;24.17;;
3843;SDS011;1937;51.444;6.484;2023-02-15T06:34:12;53.70;;;20.17;;
3843;SDS011;1937;51.444;6.484;2023-02-15T06:36:40;41.60;;;20.83;;
3843;SDS011;1937;51.444;6.484;2023-02-15T06:39:09;51.80;;;22.33;;
3843;SDS011;1937;51.444;6.484;2023-02-15T06:41:37;54.90;;;23.30;;
3843;SDS011;1937;51.444;6.484;2023-02-15T06:44:06;36.50;;;20.60;;
3843;SDS011;1937;51.444;6.484;2023-02-15T06:46:34;44.70;;;20.70;;
3843;SDS011;1937;51.444;6.484;2023-02-15T06:49:03;50.13;;;21.43;;
3843;SDS011;1937;51.444;6.484;2023-02-15T06:51:32;44.40;;;20.73;;
3843;SDS011;1937;51.444;6.484;2023-02-15T06:54:00;45.20;;;23.67;;
3843;SDS011;1937;51.444;6.484;2023-02-15T06:56:29;45.57;;;21.17;;
3843;SDS011;1937;51.444;6.484;2023-02-15T06:58:57;43.80;;;19.90;;
3843;SDS011;1937;51.444;6.484;2023-02-15T07:01:26;39.47;;;20.63;;
3843;SDS011;1937;51.444;6.484;2023-02-15T07:03:54;43.40;;;19.37;;
3843;SDS011;1937;51.444;6.484;2023-02-15T07:06:22;39.57;;;18.47;;
3843;SDS011;1937;51.444;6.484;2023-02-15T07:08:52;41.07;;;18.87;;
3843;SDS011;1937;51.444;6.484;2023-02-15T07:11:20;38.03;;;19.60;;
3843;SDS011;1937;51.444;6.484;2023-02-15T07:14:05;38.17;;;19.27;;
3843;SDS011;1937;51.444;6.484;2023-02-15T07:16:34;44.87;;;19.37;;
3843;SDS011;1937;51.444;6.484;2023-02-15T07:19:03;38.00;;;18.03;;
3843;SDS011;1937;51.444;6.484;2023-02-15T07:21:32;55.03;;;20.70;;
3843;SDS011;1937;51.444;6.484;2023-02-15T07:24:02;44.47;;;20.10;;
3843;SDS011;1937;51.444;6.484;2023-02-15T07:26:32;41.07;;;20.00;;
3843;SDS011;1937;51.444;6.484;2023-02-15T07:29:00;37.83;;;19.30;;
3843;SDS011;1937;51.444;6.484;2023-02-15T07:31:31;38.50;;;17.97;;
3843;SDS011;1937;51.444;6.484;2023-02-15T07:33:59;48.53;;;20.23;;
3843;SDS011;1937;51.444;6.484;2023-02-15T07:36:28;41.33;;;18.10;;
3843;SDS011;1937;51.444;6.484;2023-02-15T07:38:57;48.00;;;19.50;;
3843;SDS011;1937;51.444;6.484;2023-02-15T07:41:27;38.20;;;18.53;;
3843;SDS011;1937;51.444;6.484;2023-02-15T07:43:55;43.10;;;20.17;;
3843;SDS011;1937;51.444;6.484;2023-02-15T07:46:23;40.70;;;18.43;;
3843;SDS011;1937;51.444;6.484;2023-02-15T07:48:53;43.67;;;19.07;;
3843;SDS011;1937;51.444;6.484;2023-02-15T07:51:22;33.37;;;18.90;;
3843;SDS011;1937;51.444;6.484;2023-02-15T07:53:51;42.97;;;19.90;;
3843;SDS011;1937;51.444;6.484;2023-02-15T07:56:20;40.90;;;19.50;;
3843;SDS011;1937;51.444;6.484;2023-02-15T07:58:50;37.80;;;18.40;;
3843;SDS011;1937;51.444;6.484;2023-02-15T08:01:21;40.60;;;18.13;;
3843;SDS011;1937;51.444;6.484;2023-02-15T08:03:51;41.37;;;19.13;;
3843;SDS011;1937;51.444;6.484;2023-02-15T08:06:21;47.00;;;19.03;;
3843;SDS011;1937;51.444;6.484;2023-02-15T08:08:51;40.70;;;18.80;;
3843;SDS011;1937;51.444;6.484;2023-02-15T08:11:20;37.87;;;17.73;;
3843;SDS011;1937;51.444;6.484;2023-02-15T08:13:59;42.87;;;18.33;;
3843;SDS011;1937;51.444;6.484;2023-02-15T08:16:30;34.70;;;18.33;;
3843;SDS011;1937;51.444;6.484;2023-02-15T08:19:01;39.87;;;19.40;;
3843;SDS011;1937;51.444;6.484;2023-02-15T08:21:32;38.80;;;18.20;;
3843;SDS011;1937;51.444;6.484;2023-02-15T08:24:02;41.83;;;19.10;;
3843;SDS011;1937;51.444;6.484;2023-02-15T08:26:32;41.13;;;18.00;;
3843;SDS011;1937;51.444;6.484;2023-02-15T08:29:02;45.57;;;19.00;;
3843;SDS011;1937;51.444;6.484;2023-02-15T08:31:31;34.50;;;18.30;;
3843;SDS011;1937;51.444;6.484;2023-02-15T08:34:02;32.83;;;16.00;;
3843;SDS011;1937;51.444;6.484;2023-02-15T08:36:31;32.30;;;16.30;;
3843;SDS011;1937;51.444;6.484;2023-02-15T08:39:01;29.37;;;15.97;;
3843;SDS011;1937;51.444;6.484;2023-02-15T08:41:31;26.10;;;15.87;;
3843;SDS011;1937;51.444;6.484;2023-02-15T08:44:04;35.43;;;17.63;;
3843;SDS011;1937;51.444;6.484;2023-02-15T08:46:35;34.73;;;16.77;;
3843;SDS011;1937;51.444;6.484;2023-02-15T08:49:04;38.23;;;16.53;;
3843;SDS011;1937;51.444;6.484;2023-02-15T08:51:33;32.33;;;17.80;;
3843;SDS011;1937;51.444;6.484;2023-02-15T08:54:04;33.90;;;16.73;;
3843;SDS011;1937;51.444;6.484;2023-02-15T08:56:35;35.30;;;18.00;;
3843;SDS011;1937;51.444;6.484;2023-02-15T08:59:10;30.17;;;17.10;;
3843;SDS011;1937;51.444;6.484;2023-02-15T09:01:41;28.70;;;16.57;;
3843;SDS011;1937;51.444;6.484;2023-02-15T09:04:11;36.93;;;16.23;;
3843;SDS011;1937;51.444;6.484;2023-02-15T09:06:41;30.27;;;15.67;;
3843;SDS011;1937;51.444;6.484;2023-02-15T09:09:11;35.03;;;16.37;;
3843;SDS011;1937;51.444;6.484;2023-02-15T09:11:40;34.50;;;16.37;;
3843;SDS011;1937;51.444;6.484;2023-02-15T09:14:12;34.00;;;16.37;;
3843;SDS011;1937;51.444;6.484;2023-02-15T09:16:43;30.30;;;15.07;;
3843;SDS011;1937;51.444;6.484;2023-02-15T09:19:13;28.80;;;17.20;;
3843;SDS011;1937;51.444;6.484;2023-02-15T09:21:42;33.90;;;16.97;;
3843;SDS011;1937;51.444;6.484;2023-02-15T09:24:11;27.70;;;15.17;;
3843;SDS011;1937;51.444;6.484;2023-02-15T09:26:41;28.30;;;15.73;;
3843;SDS011;1937;51.444;6.484;2023-02-15T09:29:12;31.17;;;16.77;;
3843;SDS011;1937;51.444;6.484;2023-02-15T09:31:42;29.73;;;16.70;;
3843;SDS011;1937;51.444;6.484;2023-02-15T09:34:12;30.20;;;15.67;;
3843;SDS011;1937;51.444;6.484;2023-02-15T09:36:42;32.03;;;16.73;;
3843;SDS011;1937;51.444;6.484;2023-02-15T09:39:11;35.53;;;16.20;;
3843;SDS011;1937;51.444;6.484;2023-02-15T09:42:02;25.87;;;15.17;;
3843;SDS011;1937;51.444;6.484;2023-02-15T09:47:50;26.07;;;14.40;;
3843;SDS011;1937;51.444;6.484;2023-02-15T09:50:29;28.60;;;16.37;;
3843;SDS011;1937;51.444;6.484;2023-02-15T09:53:09;30.80;;;15.87;;
3843;SDS011;1937;51.444;6.484;2023-02-15T09:55:51;24.17;;;15.83;;
3843;SDS011;1937;51.444;6.484;2023-02-15T09:58:28;34.47;;;16.47;;
3843;SDS011;1937;51.444;6.484;2023-02-15T10:01:07;25.67;;;13.80;;
3843;SDS011;1937;51.444;6.484;2023-02-15T10:03:48;28.27;;;15.43;;
3843;SDS011;1937;51.444;6.484;2023-02-15T10:06:27;28.90;;;13.83;;
3843;SDS011;1937;51.444;6.484;2023-02-15T10:09:02;25.10;;;15.20;;
3843;SDS011;1937;51.444;6.484;2023-02-15T10:11:36;28.47;;;14.70;;
3843;SDS011;1937;51.444;6.484;2023-02-15T10:14:24;30.00;;;14.80;;
3843;SDS011;1937;51.444;6.484;2023-02-15T10:17:08;29.27;;;14.20;;
3843;SDS011;1937;51.444;6.484;2023-02-15T10:19:46;30.30;;;14.10;;
3843;SDS011;1937;51.444;6.484;2023-02-15T10:22:26;28.93;;;15.83;;
3843;SDS011;1937;51.444;6.484;2023-02-15T10:25:07;33.10;;;15.70;;
3843;SDS011;1937;51.444;6.484;2023-02-15T10:27:48;28.63;;;15.77;;
3843;SDS011;1937;51.444;6.484;2023-02-15T10:30:17;30.13;;;15.03;;
3843;SDS011;1937;51.444;6.484;2023-02-15T10:32:57;27.27;;;15.10;;
3843;SDS011;1937;51.444;6.484;2023-02-15T10:35:31;32.07;;;15.67;;
3843;SDS011;1937;51.444;6.484;2023-02-15T10:38:13;27.50;;;14.43;;
3843;SDS011;1937;51.444;6.484;2023-02-15T10:40:51;28.77;;;14.73;;
3843;SDS011;1937;51.444;6.484;2023-02-15T10:43:32;27.13;;;14.20;;
3843;SDS011;1937;51.444;6.484;2023-02-15T10:46:12;25.53;;;14.47;;
3843;SDS011;1937;51.444;6.484;2023-02-15T10:48:57;26.33;;;14.40;;
3843;SDS011;1937;51.444;6.484;2023-02-15T10:51:40;28.60;;;16.77;;
3843;SDS011;1937;51.444;6.484;2023-02-15T10:54:21;29.80;;;13.80;;
3843;SDS011;1937;51.444;6.484;2023-02-15T10:56:59;23.53;;;14.27;;
3843;SDS011;1937;51.444;6.484;2023-02-15T10:59:44;25.37;;;13.17;;
3843;SDS011;1937;51.444;6.484;2023-02-15T11:02:23;27.93;;;15.37;;
3843;SDS011;1937;51.444;6.484;2023-02-15T11:05:06;25.30;;;13.90;;
3843;SDS011;1937;51.444;6.484;2023-02-15T11:07:46;31.23;;;14.00;;
3843;SDS011;1937;51.444;6.484;2023-02-15T11:10:23;25.90;;;13.80;;
3843;SDS011;1937;51.444;6.484;2023-02-15T11:12:56;29.43;;;15.07;;
3843;SDS011;1937;51.444;6.484;2023-02-15T11:15:30;26.07;;;14.67;;
3843;SDS011;1937;51.444;6.484;2023-02-15T11:18:02;29.37;;;14.70;;
3843;SDS011;1937;51.444;6.484;2023-02-15T11:20:38;25.20;;;15.83;;
3843;SDS011;1937;51.444;6.484;2023-02-15T11:23:13;27.57;;;15.23;;
3843;SDS011;1937;51.444;6.484;2023-02-15T11:25:44;26.57;;;14.13;;
3843;SDS011;1937;51.444;6.484;2023-02-15T11:28:19;26.00;;;13.63;;
3843;SDS011;1937;51.444;6.484;2023-02-15T11:30:54;24.93;;;15.53;;
3843;SDS011;1937;51.444;6.484;2023-02-15T11:33:26;27.30;;;13.60;;
3843;SDS011;1937;51.444;6.484;2023-02-15T11:36:02;25.27;;;14.33;;
3843;SDS011;1937;51.444;6.484;2023-02-15T11:38:35;27.37;;;15.13;;
3843;SDS011;1937;51.444;6.484;2023-02-15T11:41:09;24.97;;;13.67;;
3843;SDS011;1937;51.444;6.484;2023-02-15T11:43:41;27.33;;;13.93;;
3843;SDS011;1937;51.444;6.484;2023-02-15T11:46:15;55.10;;;17.70;;
3843;SDS011;1937;51.444;6.484;2023-02-15T11:48:44;29.70;;;16.17;;
3843;SDS011;1937;51.444;6.484;2023-02-15T11:51:16;30.13;;;14.30;;
3843;SDS011;1937;51.444;6.484;2023-02-15T11:53:46;27.83;;;15.10;;
3843;SDS011;1937;51.444;6.484;2023-02-15T11:56:15;27.73;;;13.10;;
3843;SDS011;1937;51.444;6.484;2023-02-15T11:58:45;29.03;;;14.63;;
3843;SDS011;1937;51.444;6.484;2023-02-15T12:01:20;23.13;;;13.00;;
3843;SDS011;1937;51.444;6.484;2023-02-15T12:03:54;24.50;;;13.40;;
3843;SDS011;1937;51.444;6.484;2023-02-15T12:06:32;24.80;;;13.07;;
3843;SDS011;1937;51.444;6.484;2023-02-15T12:09:05;28.43;;;14.57;;
3843;SDS011;1937;51.444;6.484;2023-02-15T12:11:42;25.83;;;12.97;;
3843;SDS011;1937;51.444;6.484;2023-02-15T12:14:11;33.77;;;14.97;;
3843;SDS011;1937;51.444;6.484;2023-02-15T12:16:42;27.97;;;14.27;;
3843;SDS011;1937;51.444;6.484;2023-02-15T12:19:29;28.93;;;15.10;;
3843;SDS011;1937;51.444;6.484;2023-02-15T12:22:04;26.20;;;13.50;;
3843;SDS011;1937;51.444;6.484;2023-02-15T12:24:47;35.40;;;15.60;;
3843;SDS011;1937;51.444;6.484;2023-02-15T12:27:21;24.83;;;14.00;;
3843;SDS011;1937;51.444;6.484;2023-02-15T12:29:53;23.57;;;14.23;;
3843;SDS011;1937;51.444;6.484;2023-02-15T12:32:28;23.27;;;13.30;;
3843;SDS011;1937;51.444;6.484;2023-02-15T12:35:00;23.63;;;14.10;;
3843;SDS011;1937;51.444;6.484;2023-02-15T12:37:37;25.33;;;16.20;;
3843;SDS011;1937;51.444;6.484;2023-02-15T12:40:18;32.63;;;16.50;;
3843;SDS011;1937;51.444;6.484;2023-02-15T12:42:48;28.90;;;14.00;;
3843;SDS011;1937;51.444;6.484;2023-02-15T12:45:21;27.90;;;13.83;;
3843;SDS011;1937;51.444;6.484;2023-02-15T12:48:14;29.80;;;16.43;;
3843;SDS011;1937;51.444;6.484;2023-02-15T12:50:44;30.03;;;14.87;;
3843;SDS011;1937;51.444;6.484;2023-02-15T12:53:16;27.47;;;14.90;;
3843;SDS011;1937;51.444;6.484;2023-02-15T12:55:54;24.23;;;14.50;;
3843;SDS011;1937;51.444;6.484;2023-02-15T12:58:25;24.47;;;13.27;;
3843;SDS011;1937;51.444;6.484;2023-02-15T13:01:03;41.13;;;15.00;;
3843;SDS011;1937;51.444;6.484;2023-02-15T13:03:53;25.63;;;13.70;;
3843;SDS011;1937;51.444;6.484;2023-02-15T13:06:24;27.50;;;13.90;;
3843;SDS011;1937;51.444;6.484;2023-02-15T13:08:55;30.47;;;15.30;;
3843;SDS011;1937;51.444;6.484;2023-02-15T13:11:32;34.10;;;15.07;;
3843;SDS011;1937;51.444;6.484;2023-02-15T13:14:03;29.70;;;16.00;;
3843;SDS011;1937;51.444;6.484;2023-02-15T13:16:42;32.90;;;15.00;;
3843;SDS011;1937;51.444;6.484;2023-02-15T13:19:16;35.17;;;15.60;;
3843;SDS011;1937;51.444;6.484;2023-02-15T13:21:50;28.57;;;15.10;;
3843;SDS011;1937;51.444;6.484;2023-02-15T13:24:22;31.60;;;14.07;;
3843;SDS011;1937;51.444;6.484;2023-02-15T13:26:56;24.43;;;13.43;;
3843;SDS011;1937;51.444;6.484;2023-02-15T13:29:27;28.13;;;14.57;;
3843;SDS011;1937;51.444;6.484;2023-02-15T13:31:57;25.43;;;14.37;;
3843;SDS011;1937;51.444;6.484;2023-02-15T13:34:32;28.70;;;14.57;;
3843;SDS011;1937;51.444;6.484;2023-02-15T13:37:04;25.10;;;14.73;;
3843;SDS011;1937;51.444;6.484;2023-02-15T13:39:41;26.10;;;14.60;;
3843;SDS011;1937;51.444;6.484;2023-02-15T13:42:18;25.43;;;14.70;;
3843;SDS011;1937;51.444;6.484;2023-02-15T13:47:48;24.10;;;13.57;;
3843;SDS011;1937;51.444;6.484;2023-02-15T13:50:32;32.57;;;15.27;;
3843;SDS011;1937;51.444;6.484;2023-02-15T13:53:20;28.47;;;15.00;;
3843;SDS011;1937;51.444;6.484;2023-02-15T13:56:00;28.37;;;15.87;;
3843;SDS011;1937;51.444;6.484;2023-02-15T13:58:43;26.83;;;14.77;;
3843;SDS011;1937;51.444;6.484;2023-02-15T14:01:31;29.17;;;14.30;;
3843;SDS011;1937;51.444;6.484;2023-02-15T14:04:12;27.40;;;14.50;;
3843;SDS011;1937;51.444;6.484;2023-02-15T14:07:00;25.63;;;14.30;;
3843;SDS011;1937;51.444;6.484;2023-02-15T14:09:40;29.93;;;14.37;;
3843;SDS011;1937;51.444;6.484;2023-02-15T14:12:32;29.20;;;13.37;;
3843;SDS011;1937;51.444;6.484;2023-02-15T14:15:11;26.50;;;13.40;;
3843;SDS011;1937;51.444;6.484;2023-02-15T14:17:55;25.43;;;14.20;;
3843;SDS011;1937;51.444;6.484;2023-02-15T14:20:36;26.60;;;14.43;;
3843;SDS011;1937;51.444;6.484;2023-02-15T14:23:12;24.57;;;13.27;;
3843;SDS011;1937;51.444;6.484;2023-02-15T14:25:53;32.43;;;17.40;;
3843;SDS011;1937;51.444;6.484;2023-02-15T14:28:28;27.47;;;14.70;;
3843;SDS011;1937;51.444;6.484;2023-02-15T14:31:04;32.93;;;17.17;;
3843;SDS011;1937;51.444;6.484;2023-02-15T14:33:37;27.93;;;16.47;;
3843;SDS011;1937;51.444;6.484;2023-02-15T14:36:08;27.57;;;14.67;;
3843;SDS011;1937;51.444;6.484;2023-02-15T14:38:49;30.70;;;15.70;;
3843;SDS011;1937;51.444;6.484;2023-02-15T14:41:23;22.47;;;14.53;;
3843;SDS011;1937;51.444;6.484;2023-02-15T14:44:08;24.17;;;13.83;;
3843;SDS011;1937;51.444;6.484;2023-02-15T14:46:46;26.00;;;13.33;;
3843;SDS011;1937;51.444;6.484;2023-02-15T14:49:19;26.50;;;14.57;;
3843;SDS011;1937;51.444;6.484;2023-02-15T14:52:00;25.13;;;14.13;;
3843;SDS011;1937;51.444;6.484;2023-02-15T14:57:33;27.70;;;14.53;;
3843;SDS011;1937;51.444;6.484;2023-02-15T15:02:59;33.33;;;17.83;;
3843;SDS011;1937;51.444;6.484;2023-02-15T15:05:45;26.07;;;15.13;;
3843;SDS011;1937;51.444;6.484;2023-02-15T15:08:21;27.87;;;14.60;;
3843;SDS011;1937;51.444;6.484;2023-02-15T15:10:53;25.97;;;14.10;;
3843;SDS011;1937;51.444;6.484;2023-02-15T15:16:29;25.17;;;14.47;;
3843;SDS011;1937;51.444;6.484;2023-02-15T15:19:14;30.77;;;14.53;;
3843;SDS011;1937;51.444;6.484;2023-02-15T15:22:34;25.83;;;14.23;;
3843;SDS011;1937;51.444;6.484;2023-02-15T15:25:04;29.17;;;14.00;;
3843;SDS011;1937;51.444;6.484;2023-02-15T15:27:39;32.50;;;15.77;;
3843;SDS011;1937;51.444;6.484;2023-02-15T15:33:33;24.63;;;14.80;;
3843;SDS011;1937;51.444;6.484;2023-02-15T15:36:19;27.07;;;13.50;;
3843;SDS011;1937;51.444;6.484;2023-02-15T15:39:10;28.43;;;14.80;;
3843;SDS011;1937;51.444;6.484;2023-02-15T15:41:53;23.70;;;12.23;;
3843;SDS011;1937;51.444;6.484;2023-02-15T15:47:32;28.03;;;14.13;;
3843;SDS011;1937;51.444;6.484;2023-02-15T15:50:13;23.33;;;14.20;;
3843;SDS011;1937;51.444;6.484;2023-02-15T15:52:47;23.47;;;14.60;;
3843;SDS011;1937;51.444;6.484;2023-02-15T15:55:19;25.33;;;14.40;;
3843;SDS011;1937;51.444;6.484;2023-02-15T15:57:49;25.93;;;15.03;;